createdAt,value
2019-03-29T00:00:29.593Z,1.23
2019-03-29T00:03:01.823Z,3.30
2019-03-29T00:05:33.929Z,1.43
2019-03-29T00:08:05.456Z,2.70
2019-03-29T00:10:36.998Z,2.60
2019-03-29T00:13:08.554Z,1.50
2019-03-29T00:15:41.366Z,2.23
2019-03-29T00:18:12.853Z,2.90
2019-03-29T00:20:44.611Z,1.87
2019-03-29T00:23:16.266Z,1.60
2019-03-29T00:25:47.810Z,1.70
2019-03-29T00:28:19.548Z,1.50
2019-03-29T00:30:51.059Z,1.67
2019-03-29T00:33:23.917Z,2.27
2019-03-29T00:35:55.444Z,2.37
2019-03-29T00:38:26.953Z,1.60
2019-03-29T00:40:59.063Z,2.13
2019-03-29T00:43:30.845Z,2.37
2019-03-29T00:46:02.965Z,5.03
2019-03-29T00:48:35.827Z,1.90
2019-03-29T00:51:07.572Z,1.70
2019-03-29T00:53:40.400Z,2.40
2019-03-29T00:56:12.981Z,2.53
2019-03-29T00:58:44.744Z,2.03
2019-03-29T01:01:16.358Z,4.30
2019-03-29T01:03:47.907Z,2.40
2019-03-29T01:06:19.577Z,1.87
2019-03-29T01:08:51.220Z,2.13
2019-03-29T01:11:22.728Z,2.13
2019-03-29T01:13:54.251Z,2.83
2019-03-29T01:16:25.772Z,3.00
2019-03-29T01:18:57.252Z,2.13
2019-03-29T01:21:28.746Z,3.17
2019-03-29T01:24:00.898Z,6.43
2019-03-29T01:26:32.575Z,5.50
2019-03-29T01:29:04.688Z,4.00
2019-03-29T01:31:36.457Z,2.50
2019-03-29T01:34:07.961Z,4.63
2019-03-29T01:36:40.394Z,5.83
2019-03-29T01:39:11.947Z,3.53
2019-03-29T01:41:43.976Z,8.97
2019-03-29T01:44:15.489Z,4.00
2019-03-29T01:46:46.997Z,2.83
2019-03-29T01:49:18.517Z,3.33
2019-03-29T01:51:50.033Z,2.73
2019-03-29T01:54:21.600Z,3.43
2019-03-29T01:56:53.087Z,4.63
2019-03-29T01:59:24.796Z,4.87
2019-03-29T02:01:56.300Z,3.27
2019-03-29T02:04:27.863Z,5.17
2019-03-29T02:06:59.350Z,5.30
2019-03-29T02:09:31.021Z,7.37
2019-03-29T02:12:03.258Z,5.07
2019-03-29T02:14:35.583Z,7.50
2019-03-29T02:17:07.617Z,4.00
2019-03-29T02:19:39.147Z,3.97
2019-03-29T02:22:10.681Z,4.27
2019-03-29T02:24:43.230Z,5.07
2019-03-29T02:27:14.848Z,4.00
2019-03-29T02:29:46.454Z,4.77
2019-03-29T02:32:18.028Z,4.80
2019-03-29T02:34:49.520Z,6.90
2019-03-29T02:37:21.046Z,4.97
2019-03-29T02:39:54.682Z,4.60
2019-03-29T02:42:25.972Z,5.33
2019-03-29T02:44:57.485Z,4.37
2019-03-29T02:47:29.513Z,7.13
2019-03-29T02:50:01.004Z,9.33
2019-03-29T02:52:32.518Z,7.67
2019-03-29T02:55:04.318Z,6.93
2019-03-29T02:57:35.847Z,7.63
2019-03-29T03:00:10.514Z,7.20
2019-03-29T03:02:42.603Z,6.57
2019-03-29T03:05:14.219Z,9.23
2019-03-29T03:07:45.714Z,9.40
2019-03-29T03:10:17.334Z,8.37
2019-03-29T03:12:48.829Z,7.87
2019-03-29T03:15:20.865Z,9.43
2019-03-29T03:17:52.316Z,9.60
2019-03-29T03:20:25.279Z,8.53
2019-03-29T03:22:56.834Z,10.67
2019-03-29T03:25:28.549Z,9.30
2019-03-29T03:28:00.049Z,10.50
2019-03-29T03:30:31.636Z,10.60
2019-03-29T03:33:03.416Z,7.97
2019-03-29T03:35:35.256Z,8.03
2019-03-29T03:38:07.174Z,8.17
2019-03-29T03:40:38.828Z,8.03
2019-03-29T03:43:10.628Z,11.47
2019-03-29T03:45:43.233Z,8.03
2019-03-29T03:48:14.782Z,6.90
2019-03-29T03:50:46.571Z,8.60
2019-03-29T03:53:18.252Z,8.33
2019-03-29T03:55:49.733Z,7.00
2019-03-29T03:58:23.046Z,10.17
2019-03-29T04:00:59.313Z,9.80
2019-03-29T04:03:30.902Z,8.50
2019-03-29T04:06:02.433Z,10.23
2019-03-29T04:08:34.750Z,7.73
2019-03-29T04:11:06.347Z,10.63
2019-03-29T04:13:38.057Z,9.43
2019-03-29T04:16:09.590Z,10.53
2019-03-29T04:18:42.423Z,10.70
2019-03-29T04:21:14.090Z,11.53
2019-03-29T04:23:45.677Z,10.40
2019-03-29T04:26:17.247Z,11.03
2019-03-29T04:29:03.467Z,12.47
2019-03-29T04:31:22.054Z,10.43
2019-03-29T04:33:53.557Z,10.90
2019-03-29T04:36:25.098Z,13.80
2019-03-29T04:38:56.625Z,10.47
2019-03-29T04:41:28.158Z,13.00
2019-03-29T04:43:59.661Z,14.17
2019-03-29T04:46:42.973Z,12.10
2019-03-29T04:49:14.675Z,11.20
2019-03-29T04:51:47.270Z,11.80
2019-03-29T04:54:18.766Z,11.90
2019-03-29T04:56:51.539Z,10.87
2019-03-29T04:59:23.003Z,15.17
2019-03-29T05:01:54.550Z,12.70
2019-03-29T05:04:26.074Z,13.87
2019-03-29T05:06:58.051Z,13.77
2019-03-29T05:09:29.590Z,12.80
2019-03-29T05:12:01.244Z,13.53
2019-03-29T05:14:32.848Z,14.20
2019-03-29T05:17:04.352Z,14.27
2019-03-29T05:19:35.924Z,16.03
2019-03-29T05:22:07.925Z,18.07
2019-03-29T05:24:49.545Z,18.27
2019-03-29T05:27:35.014Z,18.60
2019-03-29T05:30:08.374Z,19.67
2019-03-29T05:32:40.333Z,19.33
2019-03-29T05:35:12.824Z,18.77
2019-03-29T05:37:44.387Z,26.67
2019-03-29T05:40:15.946Z,22.77
2019-03-29T05:42:47.521Z,24.93
2019-03-29T05:45:18.992Z,26.53
2019-03-29T05:47:50.474Z,27.20
2019-03-29T05:50:21.970Z,26.00
2019-03-29T05:52:53.518Z,29.13
2019-03-29T05:55:32.462Z,35.10
2019-03-29T05:57:58.277Z,30.73
2019-03-29T06:00:29.805Z,32.60
2019-03-29T06:03:01.672Z,30.03
2019-03-29T06:05:33.265Z,32.47
2019-03-29T06:08:04.810Z,31.43
2019-03-29T06:10:48.345Z,33.33
2019-03-29T06:13:09.695Z,43.60
2019-03-29T06:15:41.912Z,170.03
2019-03-29T06:18:13.574Z,314.43
2019-03-29T06:20:45.008Z,219.63
2019-03-29T06:23:16.501Z,93.80
2019-03-29T06:25:48.048Z,73.57
2019-03-29T06:28:20.146Z,52.83
2019-03-29T06:30:52.487Z,52.47
2019-03-29T06:33:23.955Z,49.13
2019-03-29T06:35:58.793Z,65.33
2019-03-29T06:38:32.519Z,44.70
2019-03-29T06:41:04.292Z,52.70
2019-03-29T06:43:37.137Z,83.77
2019-03-29T06:46:08.687Z,37.40
2019-03-29T06:48:42.215Z,36.50
2019-03-29T06:51:16.349Z,31.13
2019-03-29T06:53:48.532Z,30.70
2019-03-29T06:56:20.050Z,25.47
2019-03-29T06:58:51.552Z,35.57
2019-03-29T07:01:23.155Z,28.93
2019-03-29T07:03:54.809Z,27.60
2019-03-29T07:06:30.448Z,25.77
2019-03-29T07:09:00.729Z,29.83
2019-03-29T07:11:32.373Z,25.17
2019-03-29T07:14:03.888Z,29.33
2019-03-29T07:16:35.374Z,30.83
2019-03-29T07:19:06.918Z,27.57
2019-03-29T07:21:39.059Z,26.70
2019-03-29T07:24:10.590Z,29.17
2019-03-29T07:26:42.198Z,24.77
2019-03-29T07:29:14.452Z,25.03
2019-03-29T07:31:46.605Z,25.93
2019-03-29T07:34:18.492Z,25.83
2019-03-29T07:36:49.975Z,25.13
2019-03-29T07:39:21.489Z,23.47
2019-03-29T07:41:53.001Z,21.73
2019-03-29T07:44:24.485Z,25.27
2019-03-29T07:46:55.958Z,22.30
2019-03-29T07:49:27.463Z,22.53
2019-03-29T07:51:58.944Z,22.50
2019-03-29T07:54:30.462Z,21.17
2019-03-29T07:57:01.988Z,21.73
2019-03-29T07:59:33.619Z,22.37
2019-03-29T08:02:05.273Z,21.90
2019-03-29T08:04:36.796Z,20.13
2019-03-29T08:07:08.407Z,19.50
2019-03-29T08:09:41.282Z,17.83
2019-03-29T08:12:12.758Z,22.27
2019-03-29T08:14:44.333Z,21.10
2019-03-29T08:17:16.198Z,19.63
2019-03-29T08:19:47.758Z,17.63
2019-03-29T08:22:19.761Z,19.60
2019-03-29T08:24:51.247Z,19.60
2019-03-29T08:27:22.775Z,16.07
2019-03-29T08:29:54.396Z,15.37
2019-03-29T08:32:25.939Z,17.00
2019-03-29T08:34:57.446Z,16.03
2019-03-29T08:37:29.001Z,14.30
2019-03-29T08:40:00.517Z,15.57
2019-03-29T08:42:32.082Z,20.07
2019-03-29T08:45:03.585Z,14.73
2019-03-29T08:47:35.808Z,16.83
2019-03-29T08:50:08.395Z,16.47
2019-03-29T08:52:39.898Z,17.53
2019-03-29T08:55:12.855Z,14.77
2019-03-29T08:57:44.666Z,15.80
2019-03-29T09:00:21.646Z,14.67
2019-03-29T09:02:53.153Z,13.90
2019-03-29T09:05:24.798Z,13.83
2019-03-29T09:07:56.579Z,14.00
2019-03-29T09:10:29.750Z,12.23
2019-03-29T09:13:04.250Z,12.93
2019-03-29T09:15:38.424Z,12.43
2019-03-29T09:18:09.944Z,11.57
2019-03-29T09:20:42.624Z,13.57
2019-03-29T09:23:14.133Z,10.30
2019-03-29T09:25:45.774Z,10.10
2019-03-29T09:28:17.278Z,12.87
2019-03-29T09:30:48.800Z,9.30
2019-03-29T09:33:20.734Z,11.33
2019-03-29T09:35:52.296Z,12.93
2019-03-29T09:38:24.173Z,10.10
2019-03-29T09:40:58.910Z,7.07
2019-03-29T09:43:28.846Z,7.97
2019-03-29T09:46:03.290Z,9.17
2019-03-29T09:48:34.720Z,9.73
2019-03-29T09:51:06.531Z,8.43
2019-03-29T09:53:41.182Z,9.07
2019-03-29T09:56:11.817Z,10.87
2019-03-29T09:58:45.033Z,11.60
2019-03-29T10:01:20.520Z,11.43
2019-03-29T10:03:49.959Z,6.50
2019-03-29T10:06:22.474Z,9.60
2019-03-29T10:08:54.236Z,8.37
2019-03-29T10:11:26.449Z,7.43
2019-03-29T10:13:58.076Z,10.60
2019-03-29T10:16:29.660Z,8.43
2019-03-29T10:19:01.165Z,7.30
2019-03-29T10:21:34.375Z,8.80
2019-03-29T10:24:06.612Z,7.57
2019-03-29T10:26:39.200Z,10.87
2019-03-29T10:29:11.430Z,9.40
2019-03-29T10:31:42.935Z,10.13
2019-03-29T10:34:14.594Z,11.10
2019-03-29T10:36:46.418Z,12.47
2019-03-29T10:39:17.893Z,11.20
2019-03-29T10:41:51.233Z,11.97
2019-03-29T10:44:23.602Z,12.13
2019-03-29T10:46:55.129Z,9.33
2019-03-29T10:49:27.020Z,9.67
2019-03-29T10:51:58.565Z,12.53
2019-03-29T10:54:30.087Z,12.70
2019-03-29T10:57:01.585Z,9.90
2019-03-29T10:59:33.096Z,11.53
2019-03-29T11:02:04.614Z,12.27
2019-03-29T11:04:36.170Z,13.07
2019-03-29T11:07:07.881Z,11.20
2019-03-29T11:09:40.055Z,12.50
2019-03-29T11:12:11.622Z,9.93
2019-03-29T11:14:43.542Z,11.07
2019-03-29T11:17:15.064Z,11.87
2019-03-29T11:19:46.618Z,14.80
2019-03-29T11:22:18.110Z,9.97
2019-03-29T11:24:49.636Z,10.20
2019-03-29T11:27:22.633Z,10.37
2019-03-29T11:29:54.197Z,10.67
2019-03-29T11:32:25.961Z,10.87
2019-03-29T11:34:57.468Z,11.63
2019-03-29T11:37:29.733Z,9.37
2019-03-29T11:40:01.213Z,9.23
2019-03-29T11:42:32.719Z,10.03
2019-03-29T11:45:04.474Z,10.60
2019-03-29T11:47:36.310Z,9.87
2019-03-29T11:50:08.113Z,12.93
2019-03-29T11:52:39.666Z,9.53
2019-03-29T11:55:11.262Z,8.23
2019-03-29T11:57:44.961Z,6.97
2019-03-29T12:00:19.765Z,6.03
2019-03-29T12:02:51.251Z,7.60
2019-03-29T12:05:22.867Z,6.83
2019-03-29T12:07:54.356Z,6.90
2019-03-29T12:10:25.835Z,6.13
2019-03-29T12:12:57.313Z,8.57
2019-03-29T12:15:29.217Z,8.50
2019-03-29T12:18:00.757Z,6.50
2019-03-29T12:20:33.284Z,7.70
2019-03-29T12:23:04.721Z,6.33
2019-03-29T12:25:36.769Z,6.87
2019-03-29T12:28:08.478Z,8.70
2019-03-29T12:30:41.349Z,9.43
2019-03-29T12:33:12.781Z,8.07
2019-03-29T12:35:44.378Z,6.50
2019-03-29T12:38:15.917Z,7.63
2019-03-29T12:40:47.389Z,7.67
2019-03-29T12:43:19.383Z,6.53
2019-03-29T12:45:51.026Z,6.77
2019-03-29T12:48:22.957Z,5.60
2019-03-29T12:50:55.433Z,6.37
2019-03-29T12:53:26.982Z,5.33
2019-03-29T12:55:58.615Z,4.07
2019-03-29T12:58:31.343Z,6.27
2019-03-29T13:01:02.933Z,6.77
2019-03-29T13:03:35.007Z,7.27
2019-03-29T13:06:06.448Z,5.50
2019-03-29T13:08:38.662Z,6.17
2019-03-29T13:11:10.507Z,7.40
2019-03-29T13:13:42.208Z,11.93
2019-03-29T13:16:13.886Z,9.20
2019-03-29T13:18:45.573Z,7.93
2019-03-29T13:21:17.055Z,9.87
2019-03-29T13:23:50.364Z,8.77
2019-03-29T13:26:23.725Z,8.67
2019-03-29T13:28:55.229Z,9.70
2019-03-29T13:31:26.826Z,10.07
2019-03-29T13:33:58.333Z,7.37
2019-03-29T13:36:30.140Z,9.37
2019-03-29T13:39:01.770Z,7.63
2019-03-29T13:41:34.249Z,8.47
2019-03-29T13:44:06.286Z,8.90
2019-03-29T13:46:37.940Z,7.50
2019-03-29T13:49:09.531Z,8.87
2019-03-29T13:51:42.537Z,9.70
2019-03-29T13:54:14.241Z,13.13
2019-03-29T13:56:45.937Z,76.27
2019-03-29T13:59:17.833Z,14.97
2019-03-29T14:01:49.739Z,76.10
2019-03-29T14:04:22.853Z,64.73
2019-03-29T14:06:54.440Z,27.10
2019-03-29T14:09:29.159Z,16.60
2019-03-29T14:11:59.309Z,20.93
2019-03-29T14:14:38.218Z,16.87
2019-03-29T14:17:04.061Z,57.70
2019-03-29T14:19:36.083Z,40.93
2019-03-29T14:22:07.659Z,17.47
2019-03-29T14:24:40.409Z,7.33
2019-03-29T14:27:22.872Z,8.87
2019-03-29T14:30:04.140Z,9.13
2019-03-29T14:32:27.924Z,7.07
2019-03-29T14:34:59.732Z,7.63
2019-03-29T14:37:31.327Z,9.73
2019-03-29T14:40:02.995Z,8.13
2019-03-29T14:42:35.402Z,8.73
2019-03-29T14:45:08.440Z,7.93
2019-03-29T14:47:43.775Z,7.37
2019-03-29T14:50:15.346Z,7.63
2019-03-29T14:52:46.910Z,7.90
2019-03-29T14:55:18.446Z,6.37
2019-03-29T14:57:49.982Z,4.97
2019-03-29T15:00:41.884Z,5.70
2019-03-29T15:03:13.653Z,7.90
2019-03-29T15:05:46.008Z,6.60
2019-03-29T15:08:17.562Z,8.10
2019-03-29T15:10:49.116Z,6.00
2019-03-29T15:13:20.663Z,5.53
2019-03-29T15:15:53.778Z,6.93
2019-03-29T15:18:25.519Z,5.90
2019-03-29T15:20:56.994Z,9.40
2019-03-29T15:23:28.494Z,5.37
2019-03-29T15:26:05.616Z,5.83
2019-03-29T15:28:40.430Z,5.30
2019-03-29T15:31:15.616Z,4.10
2019-03-29T15:33:49.269Z,3.17
2019-03-29T15:36:21.582Z,4.73
2019-03-29T15:38:55.693Z,4.07
2019-03-29T15:41:28.357Z,5.03
2019-03-29T15:44:04.683Z,4.73
2019-03-29T15:46:37.570Z,3.53
2019-03-29T15:49:09.686Z,3.30
2019-03-29T15:51:43.758Z,3.03
2019-03-29T15:54:17.317Z,2.53
2019-03-29T15:56:50.354Z,2.90
2019-03-29T15:59:25.170Z,3.10
2019-03-29T16:01:59.460Z,2.93
2019-03-29T16:04:31.533Z,4.40
2019-03-29T16:07:04.478Z,2.93
2019-03-29T16:09:36.908Z,3.80
2019-03-29T16:12:10.522Z,2.93
2019-03-29T16:14:43.877Z,3.03
2019-03-29T16:17:16.867Z,2.47
2019-03-29T16:19:48.987Z,3.03
2019-03-29T16:22:21.372Z,3.83
2019-03-29T16:24:54.317Z,2.70
2019-03-29T16:27:27.385Z,2.53
2019-03-29T16:30:01.997Z,3.13
2019-03-29T16:32:37.274Z,3.70
2019-03-29T16:35:10.774Z,3.60
2019-03-29T16:37:56.652Z,3.00
2019-03-29T16:40:18.398Z,2.80
2019-03-29T16:42:50.629Z,3.07
2019-03-29T16:45:25.237Z,2.67
2019-03-29T16:47:58.349Z,3.13
2019-03-29T16:50:30.646Z,4.97
2019-03-29T16:53:03.195Z,3.77
2019-03-29T16:55:36.155Z,3.57
2019-03-29T16:58:09.255Z,4.73
2019-03-29T17:00:48.074Z,4.90
2019-03-29T17:03:20.650Z,4.40
2019-03-29T17:05:55.787Z,3.63
2019-03-29T17:08:28.672Z,3.37
2019-03-29T17:11:00.175Z,4.27
2019-03-29T17:13:44.058Z,3.43
2019-03-29T17:16:29.488Z,3.07
2019-03-29T17:18:49.181Z,2.70
2019-03-29T17:21:20.722Z,2.80
2019-03-29T17:23:52.927Z,3.00
2019-03-29T17:26:24.836Z,3.20
2019-03-29T17:28:57.822Z,3.97
2019-03-29T17:31:29.890Z,4.60
2019-03-29T17:34:01.752Z,5.23
2019-03-29T17:36:33.279Z,4.70
2019-03-29T17:39:06.608Z,4.77
2019-03-29T17:41:38.538Z,4.57
2019-03-29T17:44:10.053Z,4.77
2019-03-29T17:46:41.593Z,5.97
2019-03-29T17:49:13.107Z,3.30
2019-03-29T17:51:45.422Z,3.43
2019-03-29T17:54:16.897Z,5.77
2019-03-29T17:56:54.863Z,3.80
2019-03-29T17:59:26.607Z,3.33
2019-03-29T18:02:08.856Z,3.47
2019-03-29T18:04:31.560Z,3.83
2019-03-29T18:07:03.095Z,3.20
2019-03-29T18:09:34.576Z,3.77
2019-03-29T18:12:06.136Z,3.57
2019-03-29T18:14:38.363Z,4.87
2019-03-29T18:17:09.914Z,4.47
2019-03-29T18:19:41.797Z,3.83
2019-03-29T18:22:13.278Z,4.17
2019-03-29T18:24:45.233Z,4.20
2019-03-29T18:27:23.598Z,4.50
2019-03-29T18:29:58.898Z,4.87
2019-03-29T18:32:38.171Z,5.67
2019-03-29T18:35:14.045Z,3.40
2019-03-29T18:37:46.307Z,3.93
2019-03-29T18:40:29.196Z,4.13
2019-03-29T18:43:01.273Z,5.10
2019-03-29T18:45:33.769Z,3.93
2019-03-29T18:48:05.705Z,3.93
2019-03-29T18:50:37.569Z,5.23
2019-03-29T18:53:09.197Z,4.93
2019-03-29T18:55:40.831Z,4.60
2019-03-29T18:58:12.297Z,3.17
2019-03-29T19:00:44.560Z,4.03
2019-03-29T19:03:16.194Z,4.13
2019-03-29T19:05:48.462Z,4.07
2019-03-29T19:08:20.176Z,5.60
2019-03-29T19:10:51.702Z,5.43
2019-03-29T19:13:23.216Z,4.63
2019-03-29T19:15:55.617Z,8.87
2019-03-29T19:18:27.163Z,9.23
2019-03-29T19:20:58.961Z,7.83
2019-03-29T19:23:30.466Z,7.40
2019-03-29T19:26:02.046Z,8.83
2019-03-29T19:28:33.704Z,8.73
2019-03-29T19:31:05.410Z,11.60
2019-03-29T19:33:38.001Z,9.83
2019-03-29T19:36:09.646Z,9.57
2019-03-29T19:38:42.978Z,9.30
2019-03-29T19:41:14.488Z,9.93
2019-03-29T19:43:46.163Z,11.37
2019-03-29T19:46:21.901Z,9.20
2019-03-29T19:48:57.187Z,8.63
2019-03-29T19:51:29.127Z,7.47
2019-03-29T19:54:07.995Z,7.40
2019-03-29T19:56:40.837Z,8.40
2019-03-29T19:59:12.785Z,8.40
2019-03-29T20:01:45.736Z,9.43
2019-03-29T20:04:18.305Z,8.60
2019-03-29T20:06:50.333Z,8.00
2019-03-29T20:09:22.877Z,9.40
2019-03-29T20:11:54.886Z,7.80
2019-03-29T20:14:26.414Z,9.10
2019-03-29T20:16:59.547Z,7.20
2019-03-29T20:19:31.201Z,7.30
2019-03-29T20:22:03.088Z,9.97
2019-03-29T20:24:37.762Z,7.97
2019-03-29T20:27:14.959Z,6.43
2019-03-29T20:29:46.747Z,7.07
2019-03-29T20:32:18.652Z,9.17
2019-03-29T20:34:50.307Z,7.27
2019-03-29T20:37:22.510Z,7.17
2019-03-29T20:39:54.114Z,7.57
2019-03-29T20:42:25.793Z,6.33
2019-03-29T20:44:57.829Z,6.73
2019-03-29T20:47:41.324Z,6.67
2019-03-29T20:50:03.674Z,6.17
2019-03-29T20:52:35.197Z,9.73
2019-03-29T20:55:06.991Z,8.63
2019-03-29T20:57:39.356Z,5.17
2019-03-29T21:00:15.110Z,7.70
2019-03-29T21:02:47.040Z,6.87
2019-03-29T21:05:18.780Z,8.63
2019-03-29T21:07:50.446Z,8.00
2019-03-29T21:10:22.051Z,5.70
2019-03-29T21:12:53.639Z,6.30
2019-03-29T21:15:25.520Z,8.60
2019-03-29T21:17:58.108Z,5.53
2019-03-29T21:20:30.094Z,9.07
2019-03-29T21:23:02.585Z,6.13
2019-03-29T21:25:35.151Z,8.40
2019-03-29T21:28:07.207Z,7.10
2019-03-29T21:30:39.787Z,15.83
2019-03-29T21:33:11.478Z,6.60
2019-03-29T21:35:44.195Z,6.53
2019-03-29T21:38:15.805Z,5.30
2019-03-29T21:40:47.705Z,6.47
2019-03-29T21:43:19.587Z,6.80
2019-03-29T21:45:51.219Z,7.57
2019-03-29T21:48:28.910Z,6.87
2019-03-29T21:50:58.504Z,7.30
2019-03-29T21:53:30.252Z,9.03
2019-03-29T21:56:02.248Z,7.00
2019-03-29T21:58:34.108Z,7.70
2019-03-29T22:01:05.848Z,7.47
2019-03-29T22:03:37.538Z,10.40
2019-03-29T22:06:09.018Z,9.33
2019-03-29T22:08:42.128Z,10.73
2019-03-29T22:11:14.757Z,8.60
2019-03-29T22:13:46.311Z,10.93
2019-03-29T22:16:18.080Z,8.90
2019-03-29T22:18:50.745Z,5.77
2019-03-29T22:21:22.273Z,10.07
2019-03-29T22:23:53.814Z,10.30
2019-03-29T22:26:25.917Z,10.03
2019-03-29T22:28:58.020Z,10.60
2019-03-29T22:31:29.618Z,12.73
2019-03-29T22:34:01.082Z,9.83
2019-03-29T22:36:32.644Z,11.60
2019-03-29T22:39:06.188Z,11.13
2019-03-29T22:41:38.220Z,10.13
2019-03-29T22:44:09.811Z,10.30
2019-03-29T22:46:41.454Z,10.80
2019-03-29T22:49:12.973Z,9.67
2019-03-29T22:52:03.325Z,10.27
2019-03-29T22:54:36.857Z,10.30
2019-03-29T22:57:08.619Z,10.60
2019-03-29T22:59:41.078Z,7.80
2019-03-29T23:02:15.268Z,8.10
2019-03-29T23:04:47.168Z,8.00
2019-03-29T23:07:18.738Z,9.63
2019-03-29T23:09:50.277Z,10.50
2019-03-29T23:12:21.848Z,11.80
2019-03-29T23:14:53.381Z,11.73
2019-03-29T23:17:24.958Z,14.87
2019-03-29T23:19:56.478Z,31.47
2019-03-29T23:22:27.951Z,15.20
2019-03-29T23:25:02.624Z,45.93
2019-03-29T23:27:36.379Z,74.47
2019-03-29T23:30:11.334Z,71.30
2019-03-29T23:32:44.385Z,13.73
2019-03-29T23:35:15.960Z,14.73
2019-03-29T23:37:47.965Z,13.43
2019-03-29T23:40:20.128Z,11.73
2019-03-29T23:42:51.626Z,9.90
2019-03-29T23:45:23.174Z,8.50
2019-03-29T23:47:54.683Z,9.67
2019-03-29T23:50:26.189Z,11.73
2019-03-29T23:52:57.731Z,8.80
2019-03-29T23:55:29.313Z,10.90
2019-03-29T23:58:00.824Z,9.57
